Time;durP1;ratioP1;P1;durP2;ratioP2;P2;SDS_P1;SDS_P2;PMS_P1;PMS_P2;Temp;Humidity;BMP_temperature;BMP_pressure;BME280_temperature;BME280_humidity;BME280_pressure;Samples;Min_cycle;Max_cycle;Signal;HPM_P1;HPM_P2
2024/05/07 00:02:33;;;;;;;;;;;12.80;99.90;;;;;;5003140;28;19928;-83
2024/05/07 00:04:59;;;;;;;;;;;12.70;99.90;;;;;;5000021;28;19921;-83
2024/05/07 00:07:25;;;;;;;;;;;12.80;99.90;;;;;;5004681;28;19921;-83
2024/05/07 00:09:57;;;;;;;;;;;12.80;99.90;;;;;;4997622;28;19921;-83
2024/05/07 00:12:22;;;;;;;;;;;12.80;99.90;;;;;;5003705;28;19929;-83
2024/05/07 00:14:48;;;;;;;;;;;12.80;99.90;;;;;;4996557;28;19949;-83
2024/05/07 00:17:16;;;;;;;;;;;12.70;99.90;;;;;;5009569;28;20918;-83
2024/05/07 00:19:45;;;;;;;;;;;12.80;99.90;;;;;;4995637;28;20345;-82
2024/05/07 00:22:18;;;;;;;;;;;12.80;99.90;;;;;;5006514;28;20473;-83
2024/05/07 00:24:44;;;;;;;;;;;12.80;99.90;;;;;;5007575;28;19918;-83
2024/05/07 00:27:10;;;;;;;;;;;12.80;99.90;;;;;;5008990;28;20452;-83
2024/05/07 00:29:41;;;;;;;;;;;12.80;99.90;;;;;;5005383;28;20298;-83
2024/05/07 00:32:09;;;;;;;;;;;12.80;99.90;;;;;;4999158;28;20289;-83
2024/05/07 00:34:37;;;;;;;;;;;12.70;99.90;;;;;;5001836;28;19922;-83
2024/05/07 00:37:03;;;;;;;;;;;12.70;99.90;;;;;;4998354;28;19951;-83
2024/05/07 00:39:28;;;;;;;;;;;12.80;99.90;;;;;;5007799;28;19921;-83
2024/05/07 00:41:54;;;;;;;;;;;12.80;99.90;;;;;;4992179;28;19921;-83
2024/05/07 00:44:20;;;;;;;;;;;12.80;99.90;;;;;;5009978;28;20313;-83
2024/05/07 00:46:45;;;;;;;;;;;12.80;99.90;;;;;;4996672;28;19924;-83
2024/05/07 00:49:11;;;;;;;;;;;12.80;99.90;;;;;;5016543;28;19989;-82
2024/05/07 00:51:38;;;;;;;;;;;12.80;99.90;;;;;;5005660;28;19933;-81
2024/05/07 00:54:09;;;;;;;;;;;12.80;99.90;;;;;;5019225;28;19921;-82
2024/05/07 00:56:38;;;;;;;;;;;12.80;99.90;;;;;;5000325;28;19929;-82
2024/05/07 00:59:03;;;;;;;;;;;12.80;99.90;;;;;;5010129;28;19917;-83
2024/05/07 01:01:29;;;;;;;;;;;12.80;99.90;;;;;;4990660;28;19929;-83
2024/05/07 01:03:55;;;;;;;;;;;12.80;99.90;;;;;;5013173;28;20416;-83
2024/05/07 01:06:23;;;;;;;;;;;12.80;99.90;;;;;;4995338;28;20000;-83
2024/05/07 01:08:52;;;;;;;;;;;12.80;99.90;;;;;;5006679;28;20353;-83
2024/05/07 01:11:21;;;;;;;;;;;12.80;99.90;;;;;;5002858;28;20037;-83
2024/05/07 01:13:55;;;;;;;;;;;12.80;99.90;;;;;;5001655;28;20388;-83
2024/05/07 01:16:21;;;;;;;;;;;12.80;99.90;;;;;;5008680;28;20385;-83
2024/05/07 01:18:46;;;;;;;;;;;12.80;99.90;;;;;;4998928;28;19921;-83
2024/05/07 01:21:12;;;;;;;;;;;12.80;99.90;;;;;;5003542;28;19922;-83
2024/05/07 01:23:40;;;;;;;;;;;12.80;99.90;;;;;;4997511;28;19928;-83
2024/05/07 01:26:05;;;;;;;;;;;12.80;99.90;;;;;;5009336;28;19921;-82
2024/05/07 01:28:31;;;;;;;;;;;12.80;99.90;;;;;;4990535;28;20261;-83
2024/05/07 01:30:59;;;;;;;;;;;12.80;99.90;;;;;;5002751;28;19944;-83
2024/05/07 01:33:25;;;;;;;;;;;12.80;99.90;;;;;;4995261;28;19928;-83
2024/05/07 01:35:56;;;;;;;;;;;12.80;99.90;;;;;;5009150;28;19921;-83
2024/05/07 01:38:25;;;;;;;;;;;12.80;99.90;;;;;;4995133;28;19922;-83
2024/05/07 01:40:50;;;;;;;;;;;12.80;99.90;;;;;;5003820;28;19973;-83
2024/05/07 01:43:21;;;;;;;;;;;12.70;99.90;;;;;;4994154;28;20055;-83
2024/05/07 01:45:47;;;;;;;;;;;12.70;99.90;;;;;;5008867;28;19928;-83
2024/05/07 01:48:14;;;;;;;;;;;12.70;99.90;;;;;;4993781;28;19913;-82
2024/05/07 01:50:45;;;;;;;;;;;12.70;99.90;;;;;;5008250;28;21065;-82
2024/05/07 01:53:14;;;;;;;;;;;12.60;99.90;;;;;;4994928;28;19932;-83
2024/05/07 01:55:42;;;;;;;;;;;12.50;99.90;;;;;;5002682;28;19925;-83
2024/05/07 01:58:10;;;;;;;;;;;12.40;99.90;;;;;;4994847;28;20384;-83
2024/05/07 02:00:41;;;;;;;;;;;12.40;99.90;;;;;;5001778;28;20232;-82
2024/05/07 02:03:07;;;;;;;;;;;12.40;99.90;;;;;;4993653;28;19922;-82
2024/05/07 02:05:33;;;;;;;;;;;12.40;99.90;;;;;;5004316;28;20407;-82
2024/05/07 02:07:58;;;;;;;;;;;12.40;99.90;;;;;;4999075;28;19937;-83
2024/05/07 02:10:27;;;;;;;;;;;12.40;99.90;;;;;;4994427;28;19922;-83
2024/05/07 02:12:52;;;;;;;;;;;12.40;99.90;;;;;;5006938;28;19929;-82
2024/05/07 02:15:21;;;;;;;;;;;12.40;99.90;;;;;;5003498;28;19921;-80
2024/05/07 02:17:51;;;;;;;;;;;12.30;99.90;;;;;;5010727;28;19925;-82
2024/05/07 02:20:20;;;;;;;;;;;12.40;99.90;;;;;;4993585;28;19929;-82
2024/05/07 02:22:47;;;;;;;;;;;12.30;99.90;;;;;;5004488;28;19921;-82
2024/05/07 02:25:16;;;;;;;;;;;12.30;99.90;;;;;;5000360;28;19921;-82
2024/05/07 02:27:42;;;;;;;;;;;12.30;99.90;;;;;;5010133;28;19921;-84
2024/05/07 02:30:11;;;;;;;;;;;12.30;99.90;;;;;;4997937;28;19921;-82
2024/05/07 02:32:36;;;;;;;;;;;12.30;99.90;;;;;;5012993;28;19921;-83
2024/05/07 02:35:05;;;;;;;;;;;12.30;99.90;;;;;;4996560;28;19929;-83
2024/05/07 02:37:31;;;;;;;;;;;12.30;99.90;;;;;;5012245;28;20356;-83
2024/05/07 02:39:59;;;;;;;;;;;12.30;99.90;;;;;;4999203;28;19935;-83
2024/05/07 02:42:27;;;;;;;;;;;12.30;99.90;;;;;;5017389;28;20372;-83
2024/05/07 02:44:53;;;;;;;;;;;12.30;99.90;;;;;;4994086;28;19922;-83
2024/05/07 02:47:27;;;;;;;;;;;12.30;99.90;;;;;;5007114;28;20014;-83
2024/05/07 02:49:52;;;;;;;;;;;12.20;99.90;;;;;;4997887;28;20479;-83
2024/05/07 02:52:18;;;;;;;;;;;12.20;99.90;;;;;;5013034;28;20404;-83
2024/05/07 02:54:43;;;;;;;;;;;12.20;99.90;;;;;;4999788;28;20889;-83
2024/05/07 02:57:10;;;;;;;;;;;12.20;99.90;;;;;;5005708;28;20369;-83
2024/05/07 02:59:36;;;;;;;;;;;12.20;99.90;;;;;;5013601;28;19921;-82
2024/05/07 03:02:02;;;;;;;;;;;12.10;99.90;;;;;;4993570;28;19921;-82
2024/05/07 03:04:27;;;;;;;;;;;12.10;99.90;;;;;;5009627;28;19921;-82
2024/05/07 03:06:53;;;;;;;;;;;12.00;99.90;;;;;;4997829;28;20227;-81
2024/05/07 03:09:19;;;;;;;;;;;12.00;99.90;;;;;;5006070;28;19928;-82
2024/05/07 03:11:47;;;;;;;;;;;11.90;99.90;;;;;;4994543;28;19921;-82
2024/05/07 03:14:19;;;;;;;;;;;11.90;99.90;;;;;;5006808;28;20141;-82
2024/05/07 03:16:47;;;;;;;;;;;12.00;99.90;;;;;;5000045;28;20296;-82
2024/05/07 03:19:13;;;;;;;;;;;12.10;99.90;;;;;;5006792;28;20020;-83
2024/05/07 03:21:40;;;;;;;;;;;12.10;99.90;;;;;;4993203;28;19968;-83
2024/05/07 03:24:06;;;;;;;;;;;12.10;99.90;;;;;;5009289;28;19921;-83
2024/05/07 03:26:32;;;;;;;;;;;12.10;99.90;;;;;;4998048;28;19922;-83
2024/05/07 03:28:58;;;;;;;;;;;12.10;99.90;;;;;;5010569;28;19919;-84
2024/05/07 03:31:31;;;;;;;;;;;12.10;99.90;;;;;;5000759;28;20359;-83
2024/05/07 03:34:00;;;;;;;;;;;12.10;99.90;;;;;;5005400;28;19914;-83
2024/05/07 03:36:26;;;;;;;;;;;12.10;99.90;;;;;;4999291;28;19921;-82
2024/05/07 03:38:51;;;;;;;;;;;12.20;99.90;;;;;;5011630;28;20612;-82
2024/05/07 03:41:17;;;;;;;;;;;12.10;99.90;;;;;;5006172;28;19921;-82
2024/05/07 03:43:42;;;;;;;;;;;12.20;99.90;;;;;;5013315;28;19914;-83
2024/05/07 03:46:12;;;;;;;;;;;12.10;99.90;;;;;;5012406;28;20188;-83
2024/05/07 03:48:40;;;;;;;;;;;12.10;99.90;;;;;;4997740;28;19913;-84
2024/05/07 03:51:06;;;;;;;;;;;12.10;99.90;;;;;;5008895;28;20954;-83
2024/05/07 03:53:32;;;;;;;;;;;12.10;99.90;;;;;;5001235;28;20369;-83
2024/05/07 03:55:58;;;;;;;;;;;12.10;99.90;;;;;;5009179;28;20050;-83
2024/05/07 03:58:23;;;;;;;;;;;12.10;99.90;;;;;;4999679;28;19913;-84
2024/05/07 04:00:51;;;;;;;;;;;12.10;99.90;;;;;;5006327;28;20659;-83
2024/05/07 04:03:17;;;;;;;;;;;12.20;99.90;;;;;;4998538;28;19921;-83
2024/05/07 04:05:43;;;;;;;;;;;12.20;99.90;;;;;;5016655;28;19921;-83
2024/05/07 04:08:16;;;;;;;;;;;12.20;99.90;;;;;;4993001;28;19928;-83
2024/05/07 04:10:44;;;;;;;;;;;12.20;99.90;;;;;;5009779;28;20293;-84
2024/05/07 04:13:13;;;;;;;;;;;12.30;99.90;;;;;;4983832;28;20421;-83
2024/05/07 04:15:38;;;;;;;;;;;12.30;99.90;;;;;;5007434;28;20393;-83
2024/05/07 04:18:12;;;;;;;;;;;12.20;99.90;;;;;;4999533;28;20044;-83
2024/05/07 04:20:40;;;;;;;;;;;12.20;99.90;;;;;;5009485;28;19993;-82
2024/05/07 04:23:06;;;;;;;;;;;12.20;99.90;;;;;;4997392;28;20571;-82
2024/05/07 04:25:32;;;;;;;;;;;12.20;99.90;;;;;;5008693;28;20092;-83
2024/05/07 04:27:58;;;;;;;;;;;12.20;99.90;;;;;;4996003;28;19995;-83
2024/05/07 04:30:31;;;;;;;;;;;12.20;99.90;;;;;;5013329;28;19932;-83
2024/05/07 04:32:59;;;;;;;;;;;12.30;99.90;;;;;;5016254;28;19928;-83
2024/05/07 04:35:29;;;;;;;;;;;12.30;99.90;;;;;;5002964;28;20269;-84
2024/05/07 04:37:55;;;;;;;;;;;12.30;99.90;;;;;;5011592;28;19987;-84
2024/05/07 04:40:20;;;;;;;;;;;12.30;99.90;;;;;;4997061;28;20000;-83
2024/05/07 04:42:46;;;;;;;;;;;12.40;99.90;;;;;;5003982;28;19956;-83
2024/05/07 04:45:12;;;;;;;;;;;12.30;99.90;;;;;;4995839;28;19929;-83
2024/05/07 04:47:40;;;;;;;;;;;12.40;99.90;;;;;;5005120;28;19921;-83
2024/05/07 04:50:06;;;;;;;;;;;12.40;99.90;;;;;;4996971;28;20297;-83
2024/05/07 04:52:34;;;;;;;;;;;12.40;99.90;;;;;;5008197;28;19936;-83
2024/05/07 04:55:01;;;;;;;;;;;12.40;99.90;;;;;;4994748;28;20018;-83
2024/05/07 04:57:30;;;;;;;;;;;12.40;99.90;;;;;;5007188;28;19964;-83
2024/05/07 04:59:58;;;;;;;;;;;12.30;99.90;;;;;;4993549;28;20514;-83
2024/05/07 05:02:23;;;;;;;;;;;12.20;99.90;;;;;;5000422;28;19968;-83
2024/05/07 05:04:49;;;;;;;;;;;12.20;99.90;;;;;;5000305;28;19968;-81
2024/05/07 05:07:15;;;;;;;;;;;12.20;99.90;;;;;;5011641;28;20008;-82
2024/05/07 05:09:40;;;;;;;;;;;12.20;99.90;;;;;;5013833;28;19921;-81
2024/05/07 05:12:06;;;;;;;;;;;12.20;99.90;;;;;;5009991;28;19929;-83
2024/05/07 05:14:32;;;;;;;;;;;12.20;99.90;;;;;;4993039;28;19921;-82
2024/05/07 05:16:58;;;;;;;;;;;12.20;99.90;;;;;;5007271;28;19964;-82
2024/05/07 05:19:23;;;;;;;;;;;12.20;99.90;;;;;;4998941;28;19939;-82
2024/05/07 05:21:51;;;;;;;;;;;12.30;99.90;;;;;;4993208;28;19921;-81
2024/05/07 05:24:19;;;;;;;;;;;12.40;99.90;;;;;;5008580;28;19928;-82
2024/05/07 05:26:50;;;;;;;;;;;12.50;99.90;;;;;;4988588;28;19948;-82
2024/05/07 05:29:16;;;;;;;;;;;12.60;99.90;;;;;;5002364;28;19964;-82
2024/05/07 05:31:41;;;;;;;;;;;12.50;99.90;;;;;;4997680;28;19921;-82
2024/05/07 05:34:09;;;;;;;;;;;12.60;99.90;;;;;;5009007;28;19945;-82
2024/05/07 05:36:38;;;;;;;;;;;12.70;99.90;;;;;;4999351;28;19925;-82
2024/05/07 05:39:04;;;;;;;;;;;12.90;99.90;;;;;;5008193;28;19913;-83
2024/05/07 05:41:31;;;;;;;;;;;12.80;99.90;;;;;;4991439;28;20266;-83
2024/05/07 05:44:06;;;;;;;;;;;12.90;99.90;;;;;;5005275;28;19922;-81
2024/05/07 05:46:32;;;;;;;;;;;12.90;99.90;;;;;;4994164;28;19928;-82
2024/05/07 05:48:58;;;;;;;;;;;13.00;99.90;;;;;;5000129;28;19921;-84
2024/05/07 05:51:25;;;;;;;;;;;12.90;99.90;;;;;;5002921;28;21036;-82
2024/05/07 05:53:50;;;;;;;;;;;12.90;99.90;;;;;;5012463;28;20262;-81
2024/05/07 05:56:16;;;;;;;;;;;13.00;99.90;;;;;;4989457;28;19996;-83
2024/05/07 05:58:41;;;;;;;;;;;13.30;99.90;;;;;;5004390;28;19968;-82
2024/05/07 06:01:07;;;;;;;;;;;13.50;99.90;;;;;;4988323;28;20053;-82
2024/05/07 06:03:33;;;;;;;;;;;13.70;99.90;;;;;;4995272;28;19979;-82
2024/05/07 06:05:59;;;;;;;;;;;14.00;99.90;;;;;;5008253;28;19929;-81
2024/05/07 06:08:24;;;;;;;;;;;14.20;99.90;;;;;;4991185;28;19921;-81
2024/05/07 06:10:50;;;;;;;;;;;14.20;99.90;;;;;;4996916;28;19921;-81
2024/05/07 06:13:15;;;;;;;;;;;14.30;99.90;;;;;;4983112;28;19929;-82
2024/05/07 06:15:41;;;;;;;;;;;14.30;99.90;;;;;;5002116;28;19983;-82
2024/05/07 06:18:09;;;;;;;;;;;14.10;99.90;;;;;;4996580;28;19971;-82
2024/05/07 06:20:34;;;;;;;;;;;14.20;99.90;;;;;;5011879;28;20358;-81
2024/05/07 06:23:00;;;;;;;;;;;14.10;99.90;;;;;;4992940;28;19988;-83
2024/05/07 06:25:25;;;;;;;;;;;14.10;99.90;;;;;;5005075;28;19996;-83
2024/05/07 06:27:51;;;;;;;;;;;14.10;99.90;;;;;;4991040;28;20371;-83
2024/05/07 06:30:16;;;;;;;;;;;14.10;99.90;;;;;;5004904;28;19968;-83
2024/05/07 06:32:42;;;;;;;;;;;14.20;99.90;;;;;;4994515;28;19921;-83
2024/05/07 06:35:07;;;;;;;;;;;14.20;99.90;;;;;;5011200;28;19921;-82
2024/05/07 06:37:33;;;;;;;;;;;14.20;99.90;;;;;;5007946;28;20433;-83
2024/05/07 06:39:58;;;;;;;;;;;14.30;99.90;;;;;;5006030;28;19953;-83
2024/05/07 06:42:24;;;;;;;;;;;14.00;99.90;;;;;;4986972;28;19924;-86
2024/05/07 06:44:50;;;;;;;;;;;13.90;99.90;;;;;;5011861;28;19918;-90
2024/05/07 06:47:25;;;;;;;;;;;13.80;99.90;;;;;;5015723;28;19928;-89
2024/05/07 06:49:56;;;;;;;;;;;13.60;99.90;;;;;;5009790;28;19918;-93
2024/05/07 06:52:24;;;;;;;;;;;13.50;99.90;;;;;;5010269;28;19930;-95
2024/05/07 06:54:50;;;;;;;;;;;13.50;99.90;;;;;;5002853;28;19945;-92
2024/05/07 06:57:18;;;;;;;;;;;13.50;99.90;;;;;;5004272;28;19925;-91
2024/05/07 07:06:11;;;;;;;;;;;13.70;99.90;;;;;;4992566;28;19977;-95
2024/05/07 07:06:42;;;;;;;;;;;13.60;99.90;;;;;;5004433;28;19914;-96
2024/05/07 07:12:09;;;;;;;;;;;13.90;99.90;;;;;;4989672;28;19922;-95
2024/05/07 07:14:38;;;;;;;;;;;14.00;99.90;;;;;;4979728;28;20006;-93
2024/05/07 07:17:09;;;;;;;;;;;14.00;99.90;;;;;;4983296;28;19957;-92
2024/05/07 07:19:39;;;;;;;;;;;14.00;99.90;;;;;;4972354;28;19918;-94
2024/05/07 07:24:57;;;;;;;;;;;14.10;99.90;;;;;;4922303;29;19970;-91
2024/05/07 07:27:29;;;;;;;;;;;14.20;99.90;;;;;;4906591;29;19954;-90
2024/05/07 07:30:02;;;;;;;;;;;14.20;99.90;;;;;;4904796;29;19923;-91
2024/05/07 07:32:28;;;;;;;;;;;14.50;99.90;;;;;;4904029;29;19923;-91
2024/05/07 07:32:28;;;;;;;;;;;14.10;99.90;;;;;;4992440;28;19914;-95
2024/05/07 07:34:53;;;;;;;;;;;14.60;99.90;;;;;;4960442;28;19976;-91
2024/05/07 07:40:05;;;;;;;;;;;14.70;99.90;;;;;;5004984;28;19932;-76
2024/05/07 07:42:30;;;;;;;;;;;14.90;99.90;;;;;;5011772;28;19932;-75
2024/05/07 07:44:56;;;;;;;;;;;15.00;99.90;;;;;;5004808;28;19960;-74
2024/05/07 07:47:21;;;;;;;;;;;15.20;99.90;;;;;;5023430;28;19921;-76
2024/05/07 07:49:47;;;;;;;;;;;15.40;99.90;;;;;;5005745;28;20296;-75
2024/05/07 07:52:13;;;;;;;;;;;15.40;99.90;;;;;;5025521;28;20331;-78
2024/05/07 07:54:39;;;;;;;;;;;15.40;99.90;;;;;;5021799;28;19928;-77
2024/05/07 07:57:04;;;;;;;;;;;15.50;99.90;;;;;;5014472;28;19925;-76
2024/05/07 07:59:30;;;;;;;;;;;15.60;99.90;;;;;;5026002;28;19966;-78
2024/05/07 08:01:55;;;;;;;;;;;15.70;99.90;;;;;;4999109;28;19968;-77
2024/05/07 08:04:21;;;;;;;;;;;15.60;99.90;;;;;;5024523;28;19957;-77
2024/05/07 08:06:46;;;;;;;;;;;15.60;99.90;;;;;;5014278;28;20428;-77
2024/05/07 08:09:12;;;;;;;;;;;15.70;99.90;;;;;;5018279;28;19927;-76
2024/05/07 08:11:37;;;;;;;;;;;15.80;99.90;;;;;;5012488;28;19921;-76
2024/05/07 08:14:03;;;;;;;;;;;15.90;99.90;;;;;;5023736;28;19921;-79
2024/05/07 08:16:28;;;;;;;;;;;16.10;99.90;;;;;;5011402;28;19936;-77
2024/05/07 08:18:54;;;;;;;;;;;16.10;99.90;;;;;;5022022;28;19933;-76
2024/05/07 08:21:21;;;;;;;;;;;16.20;99.90;;;;;;5006533;28;20056;-76
2024/05/07 08:23:47;;;;;;;;;;;16.30;99.90;;;;;;5016476;28;19927;-76
2024/05/07 08:26:12;;;;;;;;;;;16.60;99.90;;;;;;5002822;28;19921;-74
2024/05/07 08:28:38;;;;;;;;;;;16.70;99.90;;;;;;5014834;28;20027;-76
2024/05/07 08:31:03;;;;;;;;;;;16.90;99.90;;;;;;5004984;28;19966;-78
2024/05/07 08:33:29;;;;;;;;;;;16.70;99.90;;;;;;5027063;28;20285;-77
2024/05/07 08:35:54;;;;;;;;;;;16.70;99.90;;;;;;5018662;28;20392;-74
2024/05/07 08:38:20;;;;;;;;;;;16.60;99.90;;;;;;5012972;28;19929;-76
2024/05/07 08:40:48;;;;;;;;;;;16.60;99.90;;;;;;5020991;28;20093;-75
2024/05/07 08:43:22;;;;;;;;;;;16.70;99.90;;;;;;5004094;28;19921;-75
2024/05/07 08:45:49;;;;;;;;;;;16.70;99.90;;;;;;5018110;28;19970;-76
2024/05/07 08:48:16;;;;;;;;;;;16.80;99.90;;;;;;5011347;28;19920;-81
2024/05/07 08:50:44;;;;;;;;;;;16.70;99.90;;;;;;5017528;28;19920;-78
2024/05/07 08:53:10;;;;;;;;;;;16.70;99.90;;;;;;5003854;28;19924;-78
2024/05/07 08:55:36;;;;;;;;;;;16.80;99.90;;;;;;5015263;28;19931;-76
2024/05/07 08:58:03;;;;;;;;;;;16.90;99.90;;;;;;5010342;28;19932;-77
2024/05/07 09:00:29;;;;;;;;;;;17.00;99.90;;;;;;5021138;28;20015;-77
2024/05/07 09:02:55;;;;;;;;;;;17.10;99.90;;;;;;5009392;28;19921;-77
2024/05/07 09:05:21;;;;;;;;;;;17.10;99.90;;;;;;5020592;28;19929;-83
2024/05/07 09:07:46;;;;;;;;;;;17.20;99.90;;;;;;4995685;28;20257;-78
2024/05/07 09:10:12;;;;;;;;;;;17.20;99.90;;;;;;5014322;28;20342;-77
2024/05/07 09:12:37;;;;;;;;;;;17.20;99.90;;;;;;5014918;28;19967;-77
2024/05/07 09:15:04;;;;;;;;;;;17.40;99.90;;;;;;5019040;28;19974;-79
2024/05/07 09:17:32;;;;;;;;;;;17.40;99.90;;;;;;4995886;28;22087;-76
2024/05/07 09:19:59;;;;;;;;;;;17.70;99.90;;;;;;5011243;28;19920;-74
2024/05/07 09:22:24;;;;;;;;;;;17.90;99.90;;;;;;5012506;28;19920;-73
2024/05/07 09:24:57;;;;;;;;;;;18.00;99.90;;;;;;5004863;28;20284;-76
2024/05/07 09:27:23;;;;;;;;;;;18.00;99.90;;;;;;5016596;28;19921;-76
2024/05/07 09:29:52;;;;;;;;;;;17.90;99.90;;;;;;5006788;28;20062;-76
2024/05/07 09:32:18;;;;;;;;;;;17.90;99.90;;;;;;5014207;28;19928;-74
2024/05/07 09:34:46;;;;;;;;;;;18.10;99.90;;;;;;5002082;28;20751;-73
2024/05/07 09:37:13;;;;;;;;;;;18.10;99.90;;;;;;5010470;28;20715;-73
2024/05/07 09:39:49;;;;;;;;;;;18.10;99.90;;;;;;5001180;28;20590;-73
2024/05/07 09:42:17;;;;;;;;;;;18.00;99.90;;;;;;5005933;28;19921;-73
2024/05/07 09:44:48;;;;;;;;;;;18.00;99.90;;;;;;4997391;28;20340;-73
2024/05/07 09:47:14;;;;;;;;;;;18.20;99.90;;;;;;5004749;28;20407;-73
2024/05/07 09:49:40;;;;;;;;;;;18.30;99.90;;;;;;4994904;28;20134;-73
2024/05/07 09:52:07;;;;;;;;;;;18.30;99.90;;;;;;5013531;28;19921;-73
2024/05/07 09:54:33;;;;;;;;;;;18.40;99.90;;;;;;4996010;28;19924;-73
2024/05/07 09:56:59;;;;;;;;;;;18.50;99.90;;;;;;5004226;28;20014;-73
2024/05/07 09:59:25;;;;;;;;;;;18.60;99.90;;;;;;4995427;28;20573;-74
2024/05/07 10:01:51;;;;;;;;;;;18.80;99.90;;;;;;5013572;28;19913;-74
2024/05/07 10:04:16;;;;;;;;;;;18.70;99.90;;;;;;5010462;28;19921;-74
2024/05/07 10:06:52;;;;;;;;;;;18.60;99.90;;;;;;5020877;28;20035;-73
2024/05/07 10:09:18;;;;;;;;;;;18.60;99.90;;;;;;5003479;28;19921;-73
2024/05/07 10:11:44;;;;;;;;;;;18.60;99.90;;;;;;5010167;28;19921;-75
2024/05/07 10:14:11;;;;;;;;;;;18.50;99.90;;;;;;5014294;28;19978;-77
2024/05/07 10:16:37;;;;;;;;;;;18.70;99.90;;;;;;5002012;28;19925;-78
2024/05/07 10:19:02;;;;;;;;;;;18.90;99.90;;;;;;5019543;28;19931;-78
2024/05/07 10:21:32;;;;;;;;;;;19.00;99.90;;;;;;5010328;28;20304;-80
2024/05/07 10:24:01;;;;;;;;;;;19.20;99.90;;;;;;5026778;28;20320;-79
2024/05/07 10:26:26;;;;;;;;;;;19.40;99.90;;;;;;5016615;28;19917;-79
2024/05/07 10:28:54;;;;;;;;;;;19.50;99.90;;;;;;5015386;28;20254;-79
2024/05/07 10:31:20;;;;;;;;;;;19.50;99.90;;;;;;5012134;28;19921;-79
2024/05/07 10:33:46;;;;;;;;;;;19.30;99.90;;;;;;5022638;28;19921;-78
2024/05/07 10:36:11;;;;;;;;;;;19.40;99.90;;;;;;5005739;28;19929;-77
2024/05/07 10:38:37;;;;;;;;;;;19.50;99.90;;;;;;5019474;28;19974;-76
2024/05/07 10:41:04;;;;;;;;;;;19.50;99.90;;;;;;5007153;28;20020;-75
2024/05/07 10:43:32;;;;;;;;;;;19.40;99.90;;;;;;5019112;28;19917;-78
2024/05/07 10:45:59;;;;;;;;;;;19.20;99.90;;;;;;5012028;28;19927;-82
2024/05/07 10:48:25;;;;;;;;;;;19.20;99.90;;;;;;5018109;28;19928;-77
2024/05/07 10:50:58;;;;;;;;;;;19.40;99.90;;;;;;5011559;28;19921;-77
2024/05/07 10:53:23;;;;;;;;;;;19.70;99.90;;;;;;5018486;28;19928;-80
2024/05/07 10:55:49;;;;;;;;;;;19.90;99.90;;;;;;5010229;28;19921;-78
2024/05/07 10:58:18;;;;;;;;;;;19.90;99.90;;;;;;5026135;28;19924;-78
2024/05/07 11:00:44;;;;;;;;;;;19.80;99.90;;;;;;5024832;28;19920;-74
2024/05/07 11:03:09;;;;;;;;;;;19.80;99.90;;;;;;5007603;28;20600;-78
2024/05/07 11:05:35;;;;;;;;;;;19.80;99.90;;;;;;5028050;28;19925;-81
2024/05/07 11:08:01;;;;;;;;;;;20.00;99.90;;;;;;5011097;28;20630;-77
2024/05/07 11:10:26;;;;;;;;;;;20.00;99.90;;;;;;5023847;28;19978;-77
2024/05/07 11:12:52;;;;;;;;;;;19.90;99.90;;;;;;5011875;28;20003;-80
2024/05/07 11:15:17;;;;;;;;;;;19.60;99.90;;;;;;5014023;28;21664;-75
2024/05/07 11:17:43;;;;;;;;;;;19.40;99.90;;;;;;5014148;28;19994;-76
2024/05/07 11:20:10;;;;;;;;;;;19.70;99.90;;;;;;5026266;28;21024;-75
2024/05/07 11:22:44;;;;;;;;;;;20.20;99.90;;;;;;5054976;22;20047;-75
2024/05/07 11:25:09;;;;;;;;;;;20.40;99.90;;;;;;5009306;28;20020;-75
2024/05/07 11:27:35;;;;;;;;;;;20.50;99.90;;;;;;4995270;28;20417;-75
2024/05/07 11:30:01;;;;;;;;;;;20.60;99.90;;;;;;5002694;28;20308;-74
2024/05/07 11:32:26;;;;;;;;;;;20.90;99.90;;;;;;4988729;28;20839;-76
2024/05/07 11:34:52;;;;;;;;;;;21.10;99.90;;;;;;4993645;28;20266;-76
2024/05/07 11:37:17;;;;;;;;;;;21.00;99.90;;;;;;4981120;28;20002;-77
2024/05/07 11:39:43;;;;;;;;;;;21.00;99.90;;;;;;5002151;28;19921;-78
2024/05/07 11:42:11;;;;;;;;;;;21.00;99.90;;;;;;4998673;28;19928;-75
2024/05/07 11:44:42;;;;;;;;;;;20.80;99.90;;;;;;4997800;28;20460;-76
2024/05/07 11:47:07;;;;;;;;;;;20.60;99.90;;;;;;4999585;28;20336;-76
2024/05/07 11:49:33;;;;;;;;;;;20.50;99.90;;;;;;4979191;28;19975;-75
2024/05/07 11:51:58;;;;;;;;;;;20.50;99.90;;;;;;4996360;28;19921;-75
2024/05/07 11:54:24;;;;;;;;;;;20.80;99.90;;;;;;4981926;28;20007;-75
2024/05/07 11:56:50;;;;;;;;;;;20.70;99.90;;;;;;4995594;28;19925;-75
2024/05/07 11:59:15;;;;;;;;;;;20.90;99.90;;;;;;4989239;28;20004;-75
2024/05/07 12:01:41;;;;;;;;;;;21.20;99.90;;;;;;4994656;28;20213;-74
2024/05/07 12:04:06;;;;;;;;;;;21.00;99.90;;;;;;4985026;28;20381;-75
2024/05/07 12:06:32;;;;;;;;;;;20.80;99.90;;;;;;5002433;28;19921;-75
2024/05/07 12:08:57;;;;;;;;;;;20.90;99.90;;;;;;4979742;28;19921;-75
2024/05/07 12:11:23;;;;;;;;;;;21.10;99.90;;;;;;5003586;28;19944;-75
2024/05/07 12:13:49;;;;;;;;;;;21.30;99.90;;;;;;4984861;28;19920;-75
2024/05/07 12:16:14;;;;;;;;;;;21.90;98.90;;;;;;4990731;28;19928;-74
2024/05/07 12:18:40;;;;;;;;;;;22.10;96.80;;;;;;4979926;28;20552;-74
2024/05/07 12:21:05;;;;;;;;;;;22.30;93.60;;;;;;4990863;28;19928;-74
2024/05/07 12:26:14;;;;;;;;;;;22.40;94.30;;;;;;4988829;28;20076;-74
2024/05/07 12:26:17;;;;;;;;;;;22.20;94.70;;;;;;4991704;28;19960;-74
2024/05/07 12:28:43;;;;;;;;;;;22.30;94.10;;;;;;4981931;28;20043;-74
2024/05/07 12:31:08;;;;;;;;;;;22.70;94.70;;;;;;4995367;28;19921;-74
2024/05/07 12:33:34;;;;;;;;;;;22.90;92.00;;;;;;5002311;28;19922;-74
2024/05/07 12:36:00;;;;;;;;;;;22.20;97.30;;;;;;4998404;28;19929;-74
2024/05/07 12:38:25;;;;;;;;;;;21.80;99.90;;;;;;5006239;28;19924;-78
2024/05/07 12:40:51;;;;;;;;;;;21.30;99.90;;;;;;4989367;28;19947;-75
2024/05/07 12:43:17;;;;;;;;;;;20.40;99.90;;;;;;5002079;28;19925;-74
2024/05/07 12:45:43;;;;;;;;;;;19.30;99.90;;;;;;4998262;28;19921;-76
2024/05/07 12:48:09;;;;;;;;;;;19.30;99.90;;;;;;5005319;28;20325;-75
2024/05/07 12:50:35;;;;;;;;;;;19.30;99.90;;;;;;4993526;28;19968;-76
2024/05/07 12:53:00;;;;;;;;;;;19.20;99.90;;;;;;5005368;28;19922;-76
2024/05/07 12:55:26;;;;;;;;;;;19.30;99.90;;;;;;4989299;28;20376;-76
2024/05/07 12:57:51;;;;;;;;;;;19.70;99.90;;;;;;5004596;28;19956;-76
2024/05/07 13:00:17;;;;;;;;;;;20.70;99.90;;;;;;4990989;28;20552;-76
2024/05/07 13:02:43;;;;;;;;;;;19.60;99.90;;;;;;4999326;28;19921;-75
2024/05/07 13:05:08;;;;;;;;;;;19.40;99.90;;;;;;4994262;28;19947;-76
2024/05/07 13:07:34;;;;;;;;;;;19.40;99.90;;;;;;5001386;28;19948;-77
2024/05/07 13:10:00;;;;;;;;;;;19.30;99.90;;;;;;4998722;28;20522;-78
2024/05/07 13:12:25;;;;;;;;;;;19.70;99.90;;;;;;4997296;28;19960;-77
2024/05/07 13:14:51;;;;;;;;;;;20.60;99.90;;;;;;5007391;28;19931;-76
2024/05/07 13:17:17;;;;;;;;;;;21.20;99.90;;;;;;5001297;28;19964;-79
2024/05/07 13:19:43;;;;;;;;;;;21.40;99.90;;;;;;5011286;28;21186;-76
2024/05/07 13:22:11;;;;;;;;;;;21.10;99.90;;;;;;5027661;22;21764;-76
2024/05/07 13:24:36;;;;;;;;;;;20.60;99.90;;;;;;4992625;28;19995;-74
2024/05/07 13:27:02;;;;;;;;;;;20.10;99.90;;;;;;4978740;28;20019;-76
2024/05/07 13:29:27;;;;;;;;;;;19.80;99.90;;;;;;4985773;28;19951;-76
2024/05/07 13:31:54;;;;;;;;;;;19.50;99.90;;;;;;4971570;28;19976;-76
2024/05/07 13:34:19;;;;;;;;;;;18.80;99.90;;;;;;4982358;28;19928;-75
2024/05/07 13:36:45;;;;;;;;;;;18.70;99.90;;;;;;4972522;28;19917;-77
2024/05/07 13:39:10;;;;;;;;;;;20.30;99.90;;;;;;4986106;28;19968;-74
2024/05/07 13:41:36;;;;;;;;;;;21.80;99.90;;;;;;4967925;28;20156;-77
2024/05/07 13:44:01;;;;;;;;;;;23.30;99.90;;;;;;4990015;28;19972;-75
2024/05/07 13:46:27;;;;;;;;;;;22.70;99.90;;;;;;4976120;28;19951;-75
2024/05/07 13:48:54;;;;;;;;;;;23.10;99.90;;;;;;4983576;28;19917;-77
2024/05/07 13:51:20;;;;;;;;;;;23.00;99.90;;;;;;4981935;28;20974;-76
2024/05/07 13:53:45;;;;;;;;;;;22.50;99.90;;;;;;4971440;28;19928;-74
2024/05/07 13:56:11;;;;;;;;;;;22.80;99.90;;;;;;4975468;28;20644;-76
2024/05/07 13:58:37;;;;;;;;;;;23.00;99.90;;;;;;4964426;28;19926;-75
2024/05/07 14:01:02;;;;;;;;;;;23.30;99.90;;;;;;4980300;28;20048;-75
2024/05/07 14:03:28;;;;;;;;;;;23.90;99.90;;;;;;4967489;28;19941;-73
2024/05/07 14:05:53;;;;;;;;;;;25.70;97.60;;;;;;4983471;28;20008;-76
2024/05/07 14:08:19;;;;;;;;;;;25.30;95.00;;;;;;4966370;28;19922;-77
2024/05/07 14:10:44;;;;;;;;;;;23.90;96.40;;;;;;4986293;28;19922;-75
2024/05/07 14:13:11;;;;;;;;;;;22.60;99.90;;;;;;4977144;28;20038;-74
2024/05/07 14:15:36;;;;;;;;;;;21.10;99.90;;;;;;4980082;28;19922;-76
2024/05/07 14:18:02;;;;;;;;;;;21.40;99.90;;;;;;4969835;28;19925;-74
2024/05/07 14:20:28;;;;;;;;;;;23.50;99.90;;;;;;4990088;28;19925;-73
2024/05/07 14:22:54;;;;;;;;;;;25.70;94.20;;;;;;4972888;28;19926;-73
2024/05/07 14:25:19;;;;;;;;;;;25.10;90.10;;;;;;4983241;28;20713;-74